Time;durP1;ratioP1;P1;durP2;ratioP2;P2;SDS_P1;SDS_P2;PMS_P1;PMS_P2;Temp;Humidity;BMP_temperature;BMP_pressure;BME280_temperature;BME280_humidity;BME280_pressure;Samples;Min_cycle;Max_cycle;Signal;HPM_P1;HPM_P2
2024/03/27 00:01:31;;;;;;;20.35;13.55;;;;;;;7.55;66.36;93136.50;5031448;28;20044;-70
2024/03/27 00:03:57;;;;;;;22.58;16.58;;;;;;;6.92;69.75;93133.56;5031527;28;20486;-70
2024/03/27 00:06:22;;;;;;;21.40;13.80;;;;;;;7.42;67.63;93140.06;5031108;28;20059;-70
2024/03/27 00:08:49;;;;;;;19.88;13.25;;;;;;;7.48;67.05;93128.25;5031037;28;20465;-70
2024/03/27 00:11:15;;;;;;;20.77;12.68;;;;;;;7.43;67.38;93128.41;5031259;28;20064;-70
2024/03/27 00:13:41;;;;;;;14.45;11.98;;;;;;;7.51;66.85;93130.28;5030901;28;20045;-70
2024/03/27 00:16:07;;;;;;;20.08;12.45;;;;;;;6.63;70.44;93137.50;5031373;28;20027;-70
2024/03/27 00:18:32;;;;;;;18.67;12.10;;;;;;;7.10;69.10;93127.22;5031112;28;20021;-70
2024/03/27 00:20:58;;;;;;;19.70;12.07;;;;;;;7.36;68.10;93127.28;5031049;28;20095;-70
2024/03/27 00:23:24;;;;;;;23.42;13.10;;;;;;;7.59;66.60;93129.50;5030823;28;20045;-70
2024/03/27 00:25:59;;;;;;;18.60;11.18;;;;;;;7.38;67.03;93130.41;5030785;28;20121;-70
2024/03/27 00:28:25;;;;;;;23.30;14.07;;;;;;;7.47;66.58;93108.19;5031439;28;20033;-70
2024/03/27 00:30:50;;;;;;;17.60;11.88;;;;;;;7.58;65.95;93117.34;5031065;28;20579;-70
2024/03/27 00:33:16;;;;;;;15.35;11.43;;;;;;;6.51;69.77;93134.63;5030978;28;20041;-70
2024/03/27 00:36:01;;;;;;;15.60;10.80;;;;;;;6.80;69.13;93121.69;5031022;28;20060;-71
2024/03/27 00:38:26;;;;;;;;;;;;;;;5.98;71.51;93132.75;5031213;28;20073;-70
2024/03/27 00:40:52;;;;;;;48.42;27.90;;;;;;;6.00;72.60;93130.59;5046017;28;20386;-70
2024/03/27 00:43:18;;;;;;;57.92;31.85;;;;;;;6.15;71.93;93136.59;5030960;28;20064;-70
2024/03/27 00:45:45;;;;;;;45.30;27.92;;;;;;;6.18;72.67;93131.50;5031116;28;20128;-70
2024/03/27 00:48:11;;;;;;;15.38;11.70;;;;;;;6.80;70.76;93119.06;5030465;28;20033;-70
2024/03/27 00:50:37;;;;;;;14.95;11.02;;;;;;;7.22;67.83;93125.56;5030757;28;20045;-70
2024/03/27 00:53:03;;;;;;;13.30;10.55;;;;;;;7.21;68.49;93129.28;5033650;28;20670;-70
2024/03/27 00:55:29;;;;;;;16.52;11.73;;;;;;;7.48;67.36;93120.31;5034274;28;20045;-70
2024/03/27 00:57:55;;;;;;;14.90;11.90;;;;;;;7.05;69.56;93116.78;5035088;28;20037;-70
2024/03/27 01:00:22;;;;;;;17.70;11.02;;;;;;;7.32;67.92;93107.84;5034644;28;20030;-70
2024/03/27 01:02:47;;;;;;;17.45;11.55;;;;;;;7.28;67.72;93105.81;5034184;28;20425;-70
2024/03/27 01:05:13;;;;;;;12.63;10.35;;;;;;;7.45;67.46;93094.47;5034355;28;20037;-70
2024/03/27 01:07:39;;;;;;;14.25;10.80;;;;;;;7.43;67.29;93101.94;5034465;28;20059;-70
2024/03/27 01:10:05;;;;;;;16.02;10.45;;;;;;;7.50;67.43;93106.75;5034686;28;20076;-69
2024/03/27 01:12:31;;;;;;;13.80;10.82;;;;;;;6.68;70.05;93108.28;5035096;28;20028;-70
2024/03/27 01:14:57;;;;;;;18.77;12.10;;;;;;;6.54;71.91;93109.47;5034494;28;20037;-70
2024/03/27 01:17:22;;;;;;;12.82;10.18;;;;;;;7.10;69.65;93119.28;5034128;28;20429;-70
2024/03/27 01:19:48;;;;;;;14.13;10.20;;;;;;;7.30;68.16;93100.22;5034224;28;20515;-70
2024/03/27 01:22:13;;;;;;;14.07;9.75;;;;;;;7.42;67.93;93105.69;5034324;28;20025;-70
2024/03/27 01:24:39;;;;;;;13.90;10.25;;;;;;;7.47;67.33;93113.47;5034485;28;20021;-70
2024/03/27 01:27:04;;;;;;;12.93;8.93;;;;;;;7.47;68.04;93115.34;5033983;28;20029;-70
2024/03/27 01:29:30;;;;;;;11.48;8.80;;;;;;;7.70;66.03;93112.22;5034314;28;20414;-70
2024/03/27 01:31:55;;;;;;;16.25;10.48;;;;;;;7.76;64.90;93114.75;5034222;28;20665;-70
2024/03/27 01:34:21;;;;;;;15.43;10.45;;;;;;;7.70;64.98;93114.88;5034083;28;20390;-70
2024/03/27 01:36:46;;;;;;;12.63;9.93;;;;;;;7.63;66.06;93101.31;5034616;28;20035;-70
2024/03/27 01:39:11;;;;;;;13.00;9.73;;;;;;;7.68;65.55;93093.22;5034006;28;20041;-70
2024/03/27 01:41:37;;;;;;;12.35;9.77;;;;;;;7.76;65.71;93101.50;5033751;28;20040;-70
2024/03/27 01:44:03;;;;;;;16.52;10.88;;;;;;;7.57;66.70;93092.00;5033917;28;20095;-70
2024/03/27 01:46:28;;;;;;;14.75;10.30;;;;;;;7.52;66.87;93100.09;5033362;28;20037;-70
2024/03/27 01:48:54;;;;;;;14.63;10.88;;;;;;;7.54;66.93;93076.72;5034158;28;20032;-70
2024/03/27 01:51:21;;;;;;;14.68;11.15;;;;;;;7.78;65.81;93078.16;5033683;28;20521;-70
2024/03/27 01:53:48;;;;;;;12.18;9.85;;;;;;;7.47;67.55;93086.22;5033297;28;20097;-70
2024/03/27 01:56:14;;;;;;;12.50;10.68;;;;;;;7.51;67.03;93080.00;5033726;28;20030;-70
2024/03/27 01:58:42;;;;;;;13.15;9.55;;;;;;;7.75;66.33;93087.50;5033506;28;20454;-70
2024/03/27 02:01:07;;;;;;;12.43;9.35;;;;;;;7.73;65.96;93088.91;5033370;28;20478;-70
2024/03/27 02:03:34;;;;;;;11.82;9.10;;;;;;;7.64;65.99;93076.41;5033497;28;20025;-70
2024/03/27 02:06:00;;;;;;;12.20;10.18;;;;;;;7.68;65.95;93071.28;5033097;28;20033;-70
2024/03/27 02:08:26;;;;;;;11.00;9.23;;;;;;;7.80;66.02;93073.31;5033390;28;20154;-70
2024/03/27 02:10:52;;;;;;;14.77;11.18;;;;;;;7.69;65.69;93068.31;5033149;28;20129;-70
2024/03/27 02:13:17;;;;;;;13.02;10.43;;;;;;;7.59;67.23;93079.22;5033276;28;20060;-70
2024/03/27 02:15:42;;;;;;;14.85;11.10;;;;;;;7.59;66.72;93063.34;5033602;28;20026;-70
2024/03/27 02:18:08;;;;;;;14.20;10.30;;;;;;;7.58;67.26;93076.91;5033236;28;20458;-70
2024/03/27 02:21:23;;;;;;;11.93;10.30;;;;;;;7.61;67.11;93069.09;5033270;28;20095;-70
2024/03/27 02:23:58;;;;;;;13.68;9.25;;;;;;;7.76;65.73;93082.97;5032883;28;20052;-70
2024/03/27 02:26:23;;;;;;;;;;;;;;;7.67;66.32;93075.03;5033436;28;20125;-70
2024/03/27 02:28:48;;;;;;;12.85;9.88;;;;;;;7.54;66.37;93063.50;5032423;28;20000;-70
2024/03/27 02:31:14;;;;;;;12.65;9.57;;;;;;;7.52;66.24;93059.63;5032751;28;20021;-70
2024/03/27 02:33:39;;;;;;;12.32;9.00;;;;;;;7.46;66.94;93063.50;5032961;28;20049;-70
2024/03/27 02:36:05;;;;;;;13.27;9.93;;;;;;;7.56;66.72;93063.97;5031542;28;20087;-70
2024/03/27 02:38:30;;;;;;;12.07;9.20;;;;;;;7.44;66.42;93058.50;5031422;28;20103;-70
2024/03/27 02:40:56;;;;;;;11.02;9.40;;;;;;;7.51;66.87;93055.41;5031859;28;20406;-70
2024/03/27 02:43:21;;;;;;;10.82;9.45;;;;;;;7.50;66.27;93062.56;5032815;28;20389;-70
2024/03/27 02:45:47;;;;;;;12.48;8.23;;;;;;;7.47;67.15;93057.91;5032870;28;20460;-70
2024/03/27 02:48:14;;;;;;;9.95;8.82;;;;;;;7.45;66.19;93059.28;5032622;28;20039;-70
2024/03/27 02:50:39;;;;;;;10.70;8.73;;;;;;;7.62;65.90;93070.66;5032830;28;20034;-70
2024/03/27 02:53:04;;;;;;;10.00;8.80;;;;;;;7.50;66.16;93070.50;5032799;28;20412;-70
2024/03/27 02:55:30;;;;;;;9.93;8.63;;;;;;;7.61;65.54;93076.28;5032253;28;20075;-70
2024/03/27 02:57:55;;;;;;;11.25;9.23;;;;;;;7.45;67.15;93068.00;5032588;28;20024;-70
2024/03/27 03:00:21;;;;;;;14.23;10.82;;;;;;;7.66;65.88;93066.31;5032205;28;20056;-70
2024/03/27 03:02:46;;;;;;;10.35;8.25;;;;;;;7.37;67.32;93065.38;5032205;28;20532;-70
2024/03/27 03:05:11;;;;;;;11.60;9.82;;;;;;;7.49;67.18;93061.00;5031503;28;20425;-70
2024/03/27 03:07:37;;;;;;;14.18;10.05;;;;;;;7.01;69.64;93068.25;5031738;28;20044;-70
2024/03/27 03:10:03;;;;;;;11.45;9.48;;;;;;;7.41;68.14;93072.38;5032178;28;20556;-71
2024/03/27 03:12:29;;;;;;;11.73;9.32;;;;;;;7.53;67.41;93064.56;5030558;28;20030;-70
2024/03/27 03:14:54;;;;;;;12.70;11.07;;;;;;;7.56;66.61;93074.56;5029855;28;20056;-70
2024/03/27 03:17:20;;;;;;;19.25;11.85;;;;;;;7.60;66.75;93059.59;5030654;28;20103;-70
2024/03/27 03:19:45;;;;;;;14.63;11.25;;;;;;;7.53;66.98;93074.41;5030415;28;20041;-70
2024/03/27 03:22:10;;;;;;;14.15;10.80;;;;;;;7.50;67.68;93059.91;5030696;28;20561;-70
2024/03/27 03:24:36;;;;;;;13.95;11.10;;;;;;;7.51;67.60;93066.78;5030897;28;20025;-70
2024/03/27 03:27:01;;;;;;;15.43;10.88;;;;;;;7.53;67.09;93074.41;5030689;28;20042;-70
2024/03/27 03:29:26;;;;;;;14.38;11.15;;;;;;;7.65;67.17;93075.31;5031528;28;20513;-69
2024/03/27 03:31:52;;;;;;;14.63;11.27;;;;;;;7.57;66.92;93060.25;5030545;28;20037;-70
2024/03/27 03:34:17;;;;;;;13.02;10.55;;;;;;;7.49;67.46;93062.88;5031643;28;20033;-70
2024/03/27 03:36:43;;;;;;;14.90;11.45;;;;;;;7.60;67.57;93080.78;5032121;28;20029;-70
2024/03/27 03:39:08;;;;;;;12.98;11.60;;;;;;;7.68;66.84;93080.00;5031620;28;20181;-70
2024/03/27 03:41:33;;;;;;;14.05;11.48;;;;;;;7.19;68.61;93069.88;5031940;28;20037;-70
2024/03/27 03:43:59;;;;;;;19.85;13.00;;;;;;;7.46;67.89;93087.31;5031488;28;20103;-70
2024/03/27 03:46:24;;;;;;;17.15;12.57;;;;;;;7.34;68.40;93073.94;5031478;28;20052;-70
2024/03/27 03:48:50;;;;;;;18.38;13.23;;;;;;;7.37;68.32;93084.66;5032094;28;20033;-70
2024/03/27 03:51:15;;;;;;;14.43;12.07;;;;;;;7.50;67.50;93067.06;5031333;28;20398;-70
2024/03/27 03:53:40;;;;;;;16.15;12.45;;;;;;;7.42;67.40;93068.66;5031414;28;20040;-70
2024/03/27 03:56:06;;;;;;;19.42;12.73;;;;;;;7.40;68.08;93065.53;5031300;28;20060;-70
2024/03/27 03:58:31;;;;;;;15.20;12.35;;;;;;;7.38;68.05;93082.81;5031008;28;20470;-70
2024/03/27 04:00:57;;;;;;;18.27;13.68;;;;;;;7.48;67.81;93071.91;5031535;28;20026;-70
2024/03/27 04:03:22;;;;;;;18.02;14.15;;;;;;;7.53;67.36;93069.88;5031081;28;20401;-70
2024/03/27 04:05:48;;;;;;;16.13;13.13;;;;;;;7.43;67.49;93072.06;5030974;28;20449;-70
2024/03/27 04:08:14;;;;;;;16.23;13.02;;;;;;;7.42;68.01;93063.34;5031570;28;20036;-70
2024/03/27 04:10:40;;;;;;;18.95;14.18;;;;;;;7.26;68.82;93068.31;5031332;28;20457;-70
2024/03/27 04:13:05;;;;;;;17.67;13.65;;;;;;;7.34;68.84;93069.41;5030872;28;20060;-70
2024/03/27 04:15:31;;;;;;;18.05;14.55;;;;;;;7.52;67.76;93073.63;5031543;28;20061;-70
2024/03/27 04:17:56;;;;;;;18.10;14.35;;;;;;;7.55;67.60;93057.13;5030771;28;20663;-70
2024/03/27 04:20:21;;;;;;;21.38;15.18;;;;;;;7.22;69.32;93085.13;5030852;28;20032;-70
2024/03/27 04:22:47;;;;;;;24.27;15.65;;;;;;;7.16;69.81;93063.31;5029523;28;20079;-70
2024/03/27 04:25:12;;;;;;;20.63;14.70;;;;;;;7.40;68.78;93064.75;5030920;28;20032;-70
2024/03/27 04:27:37;;;;;;;19.00;15.45;;;;;;;7.27;69.71;93071.75;5031566;28;20079;-70
2024/03/27 04:30:03;;;;;;;20.67;15.95;;;;;;;7.15;70.46;93076.84;5030912;28;20470;-70
2024/03/27 04:32:29;;;;;;;19.05;14.32;;;;;;;7.40;68.81;93078.75;5031009;28;20034;-70
2024/03/27 04:34:55;;;;;;;22.10;14.90;;;;;;;7.44;68.57;93073.59;5030905;28;20551;-70
2024/03/27 04:37:20;;;;;;;20.83;15.55;;;;;;;7.38;68.46;93080.16;5030649;28;20032;-70
2024/03/27 04:39:45;;;;;;;21.63;14.18;;;;;;;7.33;69.12;93083.72;5030776;28;20539;-70
2024/03/27 04:42:11;;;;;;;20.20;15.05;;;;;;;7.31;69.18;93070.03;5030980;28;20029;-70
2024/03/27 04:44:38;;;;;;;13.75;11.98;;;;;;;7.38;68.36;93062.44;5031134;28;20478;-70
2024/03/27 04:47:04;;;;;;;12.02;10.23;;;;;;;7.41;67.95;93075.03;5030969;28;20552;-70
2024/03/27 04:49:30;;;;;;;14.20;11.48;;;;;;;7.42;67.38;93076.56;5030319;28;20401;-70
2024/03/27 04:51:55;;;;;;;12.05;10.02;;;;;;;7.37;68.68;93082.03;5030887;28;20017;-70
2024/03/27 04:54:21;;;;;;;12.93;8.80;;;;;;;7.41;68.13;93082.94;5030622;28;20445;-70
2024/03/27 04:56:46;;;;;;;10.27;8.32;;;;;;;7.44;68.55;93077.03;5030646;28;20141;-70
2024/03/27 04:59:11;;;;;;;8.73;7.15;;;;;;;7.07;69.26;93088.19;5030717;28;20040;-70
2024/03/27 05:01:37;;;;;;;10.55;7.57;;;;;;;7.05;69.62;93085.06;5030141;28;20437;-70
2024/03/27 05:04:02;;;;;;;8.70;7.45;;;;;;;6.79;71.02;93079.72;5031482;28;20037;-70
2024/03/27 05:06:28;;;;;;;8.77;7.28;;;;;;;6.91;70.22;93090.47;5030384;28;20405;-70
2024/03/27 05:08:53;;;;;;;8.18;6.88;;;;;;;6.79;70.56;93087.66;5030441;28;20033;-70
2024/03/27 05:11:19;;;;;;;8.27;6.97;;;;;;;6.58;71.67;93087.44;5030391;28;20037;-70
2024/03/27 05:13:44;;;;;;;9.15;7.25;;;;;;;6.69;71.60;93088.72;5030605;28;20034;-70
2024/03/27 05:16:10;;;;;;;7.07;6.22;;;;;;;6.66;71.79;93093.81;5030673;28;20364;-70
2024/03/27 05:18:36;;;;;;;8.90;6.90;;;;;;;6.84;70.92;93085.66;5031120;28;20036;-70
2024/03/27 05:21:02;;;;;;;9.75;6.88;;;;;;;6.90;70.66;93085.53;5030467;28;20449;-70
2024/03/27 05:23:27;;;;;;;8.15;6.68;;;;;;;6.85;70.45;93073.19;5030182;28;20041;-70
2024/03/27 05:25:55;;;;;;;8.45;7.25;;;;;;;6.92;70.81;93081.47;5030642;28;20036;-70
2024/03/27 05:28:20;;;;;;;7.70;6.03;;;;;;;6.94;70.30;93078.53;5030678;28;20025;-70
2024/03/27 05:30:46;;;;;;;9.25;7.43;;;;;;;6.72;70.82;93082.03;5030948;28;20372;-70
2024/03/27 05:33:11;;;;;;;8.52;7.20;;;;;;;6.80;69.71;93073.34;5030293;28;20034;-70
2024/03/27 05:35:36;;;;;;;12.63;8.38;;;;;;;6.62;71.88;93077.81;5030456;28;20564;-70
2024/03/27 05:38:02;;;;;;;11.82;8.18;;;;;;;6.54;71.13;93086.47;5031340;28;20057;-70
2024/03/27 05:40:27;;;;;;;10.70;8.30;;;;;;;6.62;70.86;93077.03;5033651;28;20473;-70
2024/03/27 05:42:52;;;;;;;12.98;7.90;;;;;;;6.61;71.99;93086.03;5034284;28;20083;-70
2024/03/27 05:45:18;;;;;;;11.93;8.90;;;;;;;6.51;71.76;93091.56;5033557;28;20402;-70
2024/03/27 05:47:43;;;;;;;11.27;8.38;;;;;;;6.49;71.85;93083.97;5033928;28;20034;-70
2024/03/27 05:50:09;;;;;;;13.25;9.65;;;;;;;6.34;72.58;93084.38;5033199;28;20026;-70
2024/03/27 05:52:36;;;;;;;14.55;9.63;;;;;;;6.11;73.13;93077.56;5033872;28;20025;-70
2024/03/27 05:55:03;;;;;;;13.65;9.07;;;;;;;6.33;73.31;93085.44;5034051;28;20025;-70
2024/03/27 05:57:30;;;;;;;13.05;9.90;;;;;;;6.19;73.24;93087.41;5033541;28;20577;-70
2024/03/27 05:59:55;;;;;;;10.32;8.60;;;;;;;6.19;73.37;93082.13;5033076;28;20522;-70
2024/03/27 06:02:20;;;;;;;13.35;9.50;;;;;;;6.42;73.42;93083.63;5033436;28;20041;-70
2024/03/27 06:04:46;;;;;;;12.65;10.45;;;;;;;6.49;73.36;93094.53;5033297;28;20045;-70
2024/03/27 06:07:11;;;;;;;12.00;9.68;;;;;;;6.61;72.77;93091.31;5033272;28;20048;-70
2024/03/27 06:09:36;;;;;;;14.85;11.25;;;;;;;6.77;72.59;93095.88;5033745;28;20029;-70
2024/03/27 06:12:03;;;;;;;13.60;9.52;;;;;;;6.70;70.87;93090.25;5033341;28;20496;-70
2024/03/27 06:14:29;;;;;;;13.63;8.45;;;;;;;6.76;71.09;93094.31;5033433;28;20041;-70
2024/03/27 06:16:54;;;;;;;13.65;8.85;;;;;;;6.73;71.81;93097.59;5033496;28;20032;-70
2024/03/27 06:19:19;;;;;;;15.73;10.05;;;;;;;6.87;71.39;93100.13;5033133;28;20079;-70
2024/03/27 06:21:45;;;;;;;13.07;8.80;;;;;;;6.74;71.29;93085.94;5033019;28;20501;-70
2024/03/27 06:24:10;;;;;;;11.40;9.05;;;;;;;6.78;71.49;93086.88;5032880;28;20033;-70
2024/03/27 06:26:36;;;;;;;14.30;9.88;;;;;;;6.91;70.48;93085.19;5032945;28;20041;-70
2024/03/27 06:29:01;;;;;;;16.88;9.10;;;;;;;7.00;71.17;93093.94;5032841;28;20025;-70
2024/03/27 06:31:27;;;;;;;12.70;9.40;;;;;;;6.71;71.06;93091.81;5032406;28;20303;-70
2024/03/27 06:33:54;;;;;;;12.05;9.23;;;;;;;6.75;70.65;93084.84;5033161;28;20415;-70
2024/03/27 06:36:20;;;;;;;14.27;9.80;;;;;;;7.01;70.66;93095.50;5032830;28;20088;-70
2024/03/27 06:38:47;;;;;;;15.43;9.70;;;;;;;7.02;72.66;93099.69;5032119;28;20045;-70
2024/03/27 06:41:12;;;;;;;14.35;9.57;;;;;;;7.19;71.00;93093.69;5032340;28;20037;-70
2024/03/27 06:43:38;;;;;;;14.90;9.75;;;;;;;7.18;70.29;93089.47;5032503;28;20113;-70
2024/03/27 06:46:03;;;;;;;15.13;10.05;;;;;;;7.48;70.27;93091.22;5032470;28;20038;-70
2024/03/27 06:48:33;;;;;;;11.85;9.55;;;;;;;7.05;71.11;93098.28;5032410;28;20029;-70
2024/03/27 06:50:58;;;;;;;12.77;9.02;;;;;;;7.09;70.58;93107.94;5031102;28;20536;-70
2024/03/27 06:53:24;;;;;;;15.00;8.93;;;;;;;7.09;68.54;93099.25;5032255;28;20112;-70
2024/03/27 06:55:50;;;;;;;11.00;8.70;;;;;;;7.40;68.26;93118.44;5031735;28;20049;-70
2024/03/27 06:58:16;;;;;;;11.30;8.38;;;;;;;7.53;67.50;93112.19;5032458;28;20025;-70
2024/03/27 07:00:41;;;;;;;10.63;8.63;;;;;;;7.67;67.77;93110.22;5032579;28;20390;-70
2024/03/27 07:03:07;;;;;;;12.27;9.77;;;;;;;7.79;68.02;93116.75;5032291;28;20037;-70
2024/03/27 07:05:33;;;;;;;10.63;9.43;;;;;;;7.32;70.15;93121.84;5032172;28;20697;-70
2024/03/27 07:07:58;;;;;;;10.82;9.25;;;;;;;7.16;69.19;93116.22;5032194;28;20037;-70
2024/03/27 07:10:24;;;;;;;15.00;10.38;;;;;;;7.26;68.66;93117.78;5031782;28;20041;-70
2024/03/27 07:12:49;;;;;;;14.60;9.77;;;;;;;7.42;67.61;93116.25;5031538;28;20079;-70
2024/03/27 07:15:15;;;;;;;13.27;9.75;;;;;;;7.67;69.30;93112.84;5031779;28;20520;-70
2024/03/27 07:17:41;;;;;;;13.65;11.13;;;;;;;7.98;66.48;93127.81;5031850;28;20040;-70
2024/03/27 07:20:08;;;;;;;11.10;8.57;;;;;;;8.03;67.13;93117.06;5031779;28;20133;-69
2024/03/27 07:22:33;;;;;;;12.65;9.30;;;;;;;8.12;66.22;93123.13;5031820;28;20120;-70
2024/03/27 07:24:59;;;;;;;12.52;10.48;;;;;;;8.17;67.02;93115.00;5031751;28;20496;-70
2024/03/27 07:27:24;;;;;;;13.55;10.45;;;;;;;8.20;66.37;93111.75;5031528;28;20515;-70
2024/03/27 07:29:50;;;;;;;16.75;11.27;;;;;;;7.98;66.94;93111.91;5029873;28;20099;-70
2024/03/27 07:32:15;;;;;;;13.38;11.05;;;;;;;7.91;66.56;93101.03;5031535;28;20410;-70
2024/03/27 07:34:41;;;;;;;14.20;12.35;;;;;;;8.04;67.33;93115.97;5031368;28;20069;-70
2024/03/27 07:37:06;;;;;;;18.58;12.77;;;;;;;8.11;67.25;93118.94;5031034;28;20112;-70
2024/03/27 07:39:31;;;;;;;13.13;10.55;;;;;;;8.11;66.72;93121.59;5031496;28;20113;-70
2024/03/27 07:41:57;;;;;;;13.48;10.02;;;;;;;8.08;66.33;93120.31;5031037;28;20550;-70
2024/03/27 07:44:22;;;;;;;15.88;10.90;;;;;;;7.76;67.10;93109.47;5031240;28;20310;-70
2024/03/27 07:46:48;;;;;;;22.42;12.05;;;;;;;7.90;67.07;93105.56;5030903;28;20049;-70
2024/03/27 07:49:13;;;;;;;16.13;11.60;;;;;;;7.99;67.29;93102.91;5030910;28;20432;-70
2024/03/27 07:51:38;;;;;;;30.58;11.77;;;;;;;7.86;69.12;93098.56;5031704;28;20020;-70
2024/03/27 07:54:04;;;;;;;15.15;11.48;;;;;;;8.22;66.50;93101.59;5030978;28;20100;-70
2024/03/27 07:56:30;;;;;;;17.55;11.40;;;;;;;8.05;68.71;93101.66;5030658;28;20060;-70
2024/03/27 07:58:56;;;;;;;15.43;12.10;;;;;;;8.13;67.63;93096.34;5030702;28;20025;-70
2024/03/27 08:01:21;;;;;;;17.08;12.57;;;;;;;7.22;70.60;93100.97;5030560;28;20021;-70
2024/03/27 08:03:47;;;;;;;19.70;12.65;;;;;;;7.37;71.06;93099.75;5031241;28;20075;-70
2024/03/27 08:06:13;;;;;;;25.15;13.95;;;;;;;7.73;70.88;93095.75;5030965;28;20033;-70
2024/03/27 08:08:40;;;;;;;17.90;12.48;;;;;;;6.98;72.50;93106.69;5030821;28;20114;-70
2024/03/27 08:11:06;;;;;;;19.90;12.98;;;;;;;7.17;72.71;93098.47;5030254;28;20253;-70
2024/03/27 08:13:32;;;;;;;24.70;12.35;;;;;;;7.63;72.66;93096.03;5030356;28;20053;-70
2024/03/27 08:16:00;;;;;;;21.50;11.82;;;;;;;8.17;70.09;93098.38;5031037;28;20430;-70
2024/03/27 08:18:25;;;;;;;16.35;11.80;;;;;;;8.31;67.01;93088.34;5030260;28;20037;-70
2024/03/27 08:20:55;;;;;;;14.68;10.63;;;;;;;8.60;66.68;93088.44;5030246;28;20038;-70
2024/03/27 08:23:21;;;;;;;19.13;12.57;;;;;;;8.65;67.50;93093.56;5030503;28;20041;-70
2024/03/27 08:25:47;;;;;;;17.70;11.45;;;;;;;8.74;67.35;93093.50;5030817;28;20046;-70
2024/03/27 08:28:12;;;;;;;17.77;10.70;;;;;;;8.83;66.46;93094.25;5030088;28;20045;-70
2024/03/27 08:30:45;;;;;;;19.38;11.35;;;;;;;8.59;67.67;93084.22;5030769;28;20017;-70
2024/03/27 08:33:10;;;;;;;20.33;11.98;;;;;;;8.71;64.55;93092.25;5030654;28;20034;-70
2024/03/27 08:35:37;;;;;;;15.95;11.25;;;;;;;8.50;66.64;93092.19;5030383;28;20040;-70
2024/03/27 08:38:03;;;;;;;14.93;11.15;;;;;;;8.66;65.03;93089.03;5030584;28;20025;-70
2024/03/27 08:40:29;;;;;;;24.55;13.32;;;;;;;8.70;65.02;93090.72;5029973;28;20064;-70
2024/03/27 08:42:54;;;;;;;16.15;10.80;;;;;;;8.76;64.60;93088.66;5030718;28;20498;-70
2024/03/27 08:45:20;;;;;;;19.60;12.45;;;;;;;8.59;65.80;93085.00;5030198;28;20525;-70
2024/03/27 08:47:45;;;;;;;20.23;12.43;;;;;;;8.72;65.31;93077.91;5030674;28;20029;-70
2024/03/27 08:50:13;;;;;;;22.00;13.82;;;;;;;8.64;65.43;93076.09;5030496;28;20047;-70
2024/03/27 08:52:38;;;;;;;21.02;12.35;;;;;;;8.41;64.89;93070.22;5030375;28;20080;-70
2024/03/27 08:55:04;;;;;;;19.65;11.98;;;;;;;8.44;66.09;93080.22;5030376;28;20017;-70
2024/03/27 08:57:29;;;;;;;23.20;11.90;;;;;;;8.66;65.46;93076.53;5010531;28;20062;-70
2024/03/27 08:59:55;;;;;;;21.42;11.63;;;;;;;8.53;65.86;93075.66;5010576;28;20517;-70
2024/03/27 09:02:20;;;;;;;18.70;12.68;;;;;;;8.42;66.55;93077.09;5009195;28;20042;-70
2024/03/27 09:04:48;;;;;;;21.55;13.18;;;;;;;8.63;66.55;93076.41;5010769;28;20041;-70
2024/03/27 09:07:14;;;;;;;18.00;11.15;;;;;;;8.58;66.25;93083.44;5010347;28;20034;-70
2024/03/27 09:09:39;;;;;;;19.42;11.80;;;;;;;8.68;66.56;93089.47;5010971;28;20109;-70
2024/03/27 09:12:05;;;;;;;17.40;11.43;;;;;;;8.68;65.24;93070.91;5010727;28;20069;-70
2024/03/27 09:14:30;;;;;;;23.63;13.20;;;;;;;8.89;66.64;93083.16;5013946;28;20064;-70
2024/03/27 09:16:55;;;;;;;22.88;12.02;;;;;;;8.96;66.29;93072.03;5014172;28;20034;-70
2024/03/27 09:19:21;;;;;;;18.83;11.38;;;;;;;8.90;66.91;93065.38;5014339;28;20068;-70
2024/03/27 09:21:46;;;;;;;17.25;11.85;;;;;;;8.92;66.11;93082.50;5014860;28;20135;-70
2024/03/27 09:24:12;;;;;;;18.98;11.82;;;;;;;9.01;66.96;93069.19;5014388;28;20036;-70
2024/03/27 09:26:37;;;;;;;24.05;10.88;;;;;;;9.20;67.36;93077.53;5014078;28;20380;-70
2024/03/27 09:29:02;;;;;;;21.95;11.05;;;;;;;9.28;66.88;93058.16;5014067;28;20034;-70
2024/03/27 09:31:28;;;;;;;23.65;12.70;;;;;;;9.60;66.27;93063.84;5013903;28;20026;-70
2024/03/27 09:33:54;;;;;;;22.17;12.02;;;;;;;9.75;64.72;93071.22;5014784;28;20022;-70
2024/03/27 09:36:22;;;;;;;19.48;10.68;;;;;;;9.99;64.50;93079.28;5013861;28;20403;-70
2024/03/27 09:38:48;;;;;;;16.60;11.02;;;;;;;10.12;63.64;93086.19;5014064;28;20041;-70
2024/03/27 09:41:13;;;;;;;17.92;10.80;;;;;;;10.09;63.67;93070.91;5013722;28;20038;-70
2024/03/27 09:43:40;;;;;;;24.08;9.63;;;;;;;10.14;64.17;93077.91;5014066;28;20026;-70
2024/03/27 09:46:06;;;;;;;20.60;10.35;;;;;;;10.30;62.72;93076.19;5013219;28;20050;-69
2024/03/27 09:48:33;;;;;;;22.27;11.07;;;;;;;10.10;63.17;93077.78;5014224;28;20068;-70
2024/03/27 09:50:59;;;;;;;20.38;9.50;;;;;;;10.16;62.84;93067.72;5013559;28;20094;-70
2024/03/27 09:53:24;;;;;;;19.88;10.63;;;;;;;10.29;61.32;93078.06;5013432;28;20037;-70
2024/03/27 09:55:50;;;;;;;19.92;9.00;;;;;;;10.02;61.61;93057.41;5013501;28;20050;-70
2024/03/27 09:58:16;;;;;;;19.33;8.18;;;;;;;9.81;61.71;93072.56;5013688;28;20490;-70
2024/03/27 10:00:42;;;;;;;17.48;9.02;;;;;;;9.85;62.42;93062.84;5014306;28;20018;-70
2024/03/27 10:03:08;;;;;;;15.95;8.77;;;;;;;10.04;63.38;93073.00;5013222;28;20506;-70
2024/03/27 10:05:34;;;;;;;18.17;8.23;;;;;;;10.18;61.24;93076.91;5013544;28;20033;-70
2024/03/27 10:08:02;;;;;;;21.63;10.48;;;;;;;10.15;61.05;93068.84;5013377;28;20065;-70
2024/03/27 10:10:29;;;;;;;15.35;8.48;;;;;;;10.15;62.07;93063.50;5013265;28;20525;-70
2024/03/27 10:12:54;;;;;;;20.05;9.43;;;;;;;10.33;61.67;93070.97;5013382;28;20026;-70
2024/03/27 10:15:19;;;;;;;19.15;8.40;;;;;;;10.26;61.32;93049.50;5013683;28;20453;-70
2024/03/27 10:17:45;;;;;;;22.70;8.93;;;;;;;10.37;61.62;93033.16;5013108;28;20414;-70
2024/03/27 10:20:11;;;;;;;23.73;8.93;;;;;;;10.58;60.50;93050.56;5012692;28;20092;-70
2024/03/27 10:22:37;;;;;;;12.23;7.70;;;;;;;10.62;60.65;93050.66;5012992;28;20041;-70
2024/03/27 10:25:04;;;;;;;18.15;8.85;;;;;;;10.71;60.20;93046.81;5013494;28;20030;-70
2024/03/27 10:27:34;;;;;;;22.80;9.68;;;;;;;10.99;60.90;93048.81;5032615;28;20049;-70
2024/03/27 10:30:00;;;;;;;39.45;9.82;;;;;;;11.13;59.64;93044.69;5032737;28;20103;-70
2024/03/27 10:32:26;;;;;;;20.23;9.48;;;;;;;11.16;59.28;93045.91;5032913;28;20509;-70
2024/03/27 10:34:52;;;;;;;32.95;9.23;;;;;;;11.40;58.34;93047.75;5032563;28;20041;-70
2024/03/27 10:37:19;;;;;;;22.33;10.07;;;;;;;11.43;57.66;93047.88;5032572;28;20496;-70
2024/03/27 10:39:49;;;;;;;15.93;8.90;;;;;;;11.49;57.19;93043.09;5032955;28;20028;-70
2024/03/27 10:42:26;;;;;;;16.40;8.50;;;;;;;11.65;59.91;93045.84;5031188;28;20042;-70
2024/03/27 10:44:56;;;;;;;22.40;8.68;;;;;;;11.69;56.15;93039.50;5032490;28;20087;-70
2024/03/27 10:47:25;;;;;;;14.93;8.63;;;;;;;11.57;56.76;93042.22;5032232;28;20064;-70
2024/03/27 10:49:51;;;;;;;18.55;8.25;;;;;;;11.37;57.58;93053.75;5032364;28;20036;-70
2024/03/27 10:52:18;;;;;;;14.85;8.05;;;;;;;11.40;57.57;93056.50;5032183;28;20021;-70
2024/03/27 10:54:44;;;;;;;24.17;8.88;;;;;;;11.38;56.70;93050.00;5032485;28;20497;-69
2024/03/27 10:57:11;;;;;;;24.73;8.93;;;;;;;11.18;57.11;93063.09;5032311;28;20038;-70
2024/03/27 10:59:39;;;;;;;23.25;9.13;;;;;;;11.18;57.06;93047.13;5032662;28;20044;-70
2024/03/27 11:02:09;;;;;;;18.85;9.05;;;;;;;11.28;56.70;93050.44;5032069;28;20034;-70
2024/03/27 11:04:40;;;;;;;25.60;10.07;;;;;;;11.26;57.01;93052.66;5032556;28;20116;-70
2024/03/27 11:07:07;;;;;;;26.73;9.15;;;;;;;11.36;57.14;93057.53;5031778;28;20543;-70
2024/03/27 11:09:36;;;;;;;22.65;8.38;;;;;;;11.27;56.76;93062.19;5032297;28;20017;-70
2024/03/27 11:12:03;;;;;;;29.10;9.30;;;;;;;11.51;57.04;93051.53;5031708;28;20034;-70
2024/03/27 11:14:35;;;;;;;28.60;9.23;;;;;;;11.49;55.88;93054.50;5032048;28;20046;-70
2024/03/27 11:17:02;;;;;;;22.33;8.20;;;;;;;11.38;56.16;93050.78;5031509;28;20175;-70
2024/03/27 11:19:36;;;;;;;23.52;8.93;;;;;;;11.31;56.37;93052.44;5031805;28;20040;-70
2024/03/27 11:22:03;;;;;;;28.98;10.77;;;;;;;11.43;55.98;93053.19;5032430;28;20021;-70
2024/03/27 11:24:29;;;;;;;19.88;9.25;;;;;;;11.41;56.84;93038.66;5029913;28;20041;-70